createdAt,value
2022-11-04T00:01:11.804Z,99411.64
2022-11-04T00:16:22.139Z,99432.33
2022-11-04T00:31:38.139Z,99481.95
2022-11-04T00:46:35.703Z,99492.12
2022-11-04T01:01:26.872Z,99496.85
2022-11-04T01:16:17.976Z,99500.50
2022-11-04T01:31:08.649Z,99480.64
2022-11-04T01:45:59.556Z,99497.12
2022-11-04T02:00:51.191Z,99495.58
2022-11-04T02:16:12.069Z,99501.42
2022-11-04T02:31:11.336Z,99501.27
2022-11-04T02:46:05.317Z,99510.66
2022-11-04T03:00:57.243Z,99510.50
2022-11-04T03:15:51.789Z,99514.59
2022-11-04T03:30:45.793Z,99507.25
2022-11-04T03:45:37.870Z,99522.84
2022-11-04T04:00:28.805Z,99516.75
2022-11-04T04:15:19.062Z,99476.92
2022-11-04T04:30:11.022Z,99475.37
2022-11-04T04:45:04.712Z,99485.70
2022-11-04T05:00:00.154Z,99469.69
2022-11-04T05:14:51.979Z,99461.69
2022-11-04T05:29:43.079Z,99431.05
2022-11-04T05:44:34.935Z,99426.68
2022-11-04T05:59:26.284Z,99443.16
2022-11-04T06:14:18.856Z,99457.95
2022-11-04T06:29:08.497Z,99450.20
2022-11-04T06:44:00.755Z,99450.39
2022-11-04T06:58:51.965Z,99480.11
2022-11-04T07:13:43.213Z,99490.70
2022-11-04T07:28:35.924Z,99493.05
2022-11-04T07:43:28.026Z,99489.25
2022-11-04T07:58:20.213Z,99469.58
2022-11-04T08:13:12.214Z,99447.80
2022-11-04T08:28:04.640Z,99449.75
2022-11-04T08:42:56.935Z,99439.24
2022-11-04T08:57:49.563Z,99455.36
2022-11-04T09:12:41.693Z,99459.67
2022-11-04T09:27:34.436Z,99465.56
2022-11-04T09:42:36.043Z,99485.81
2022-11-04T09:57:33.134Z,99489.61
2022-11-04T10:12:39.571Z,99500.28
2022-11-04T10:27:37.181Z,99493.28
2022-11-04T10:42:29.018Z,99480.20
2022-11-04T10:57:26.316Z,99484.07
2022-11-04T11:12:49.584Z,99490.66
2022-11-04T11:27:14.039Z,99490.48
2022-11-04T11:42:08.523Z,99464.93
2022-11-04T11:57:24.108Z,99440.35
2022-11-04T12:12:21.843Z,99428.36
2022-11-04T12:27:29.527Z,99440.97
2022-11-04T12:58:10.486Z,99434.67
2022-11-04T13:13:07.880Z,99457.91
2022-11-04T13:43:36.678Z,99491.28
2022-11-04T13:58:35.055Z,99502.47
2022-11-04T14:13:30.867Z,99509.88
2022-11-04T14:28:21.987Z,99526.33
2022-11-04T14:43:18.819Z,99543.95
2022-11-04T14:58:25.095Z,99560.59
2022-11-04T15:13:21.297Z,99571.48
2022-11-04T15:28:17.456Z,99583.31
2022-11-04T15:43:13.056Z,99598.20
2022-11-04T15:58:05.396Z,99624.69
2022-11-04T16:12:59.825Z,99638.45
2022-11-04T16:27:54.370Z,99651.92
2022-11-04T16:42:46.503Z,99661.22
2022-11-04T16:57:37.749Z,99687.28
2022-11-04T17:12:28.799Z,99707.02
2022-11-04T17:27:20.342Z,99738.52
2022-11-04T17:42:30.042Z,99766.97
2022-11-04T17:57:27.250Z,99776.55
2022-11-04T18:12:41.887Z,99801.54
2022-11-04T18:27:34.641Z,99813.56
2022-11-04T18:42:26.256Z,99818.41
2022-11-04T18:57:17.527Z,99851.29
2022-11-04T19:12:27.815Z,99856.81
2022-11-04T19:27:25.354Z,99868.72
2022-11-04T19:42:35.222Z,99901.23
2022-11-04T19:57:32.733Z,99925.98
2022-11-04T20:12:42.618Z,99954.86
2022-11-04T20:27:40.113Z,99972.73
2022-11-04T20:42:31.906Z,99993.25
2022-11-04T20:57:23.222Z,100010.45
2022-11-04T21:12:14.364Z,100030.73
2022-11-04T21:27:05.696Z,100045.91
2022-11-04T21:41:57.387Z,100064.36
2022-11-04T21:56:49.361Z,100073.02
2022-11-04T22:11:40.836Z,100080.05
2022-11-04T22:26:31.425Z,100091.34
2022-11-04T22:41:22.574Z,100108.75
2022-11-04T22:56:14.060Z,100114.09
2022-11-04T23:11:23.544Z,100124.33
2022-11-04T23:26:21.344Z,100131.86
2022-11-04T23:41:28.944Z,100141.80
2022-11-04T23:56:45.910Z,100157.78
